sensor_id;sensor_type;location;lat;lon;timestamp;P1;durP1;ratioP1;P2;durP2;ratioP2
39022;SDS011;25908;51.984;5.928;2023-04-03T00:01:11;3.40;;;1.30;;
39022;SDS011;25908;51.984;5.928;2023-04-03T00:03:37;3.03;;;1.25;;
39022;SDS011;25908;51.984;5.928;2023-04-03T00:06:03;3.60;;;1.40;;
39022;SDS011;25908;51.984;5.928;2023-04-03T00:08:30;2.72;;;1.20;;
39022;SDS011;25908;51.984;5.928;2023-04-03T00:10:57;3.22;;;1.15;;
39022;SDS011;25908;51.984;5.928;2023-04-03T00:13:23;4.07;;;1.65;;
39022;SDS011;25908;51.984;5.928;2023-04-03T00:15:50;4.35;;;1.30;;
39022;SDS011;25908;51.984;5.928;2023-04-03T00:18:16;2.45;;;0.93;;
39022;SDS011;25908;51.984;5.928;2023-04-03T00:20:42;5.05;;;1.42;;
39022;SDS011;25908;51.984;5.928;2023-04-03T00:23:08;4.32;;;0.85;;
39022;SDS011;25908;51.984;5.928;2023-04-03T00:25:33;3.83;;;1.25;;
39022;SDS011;25908;51.984;5.928;2023-04-03T00:27:59;3.00;;;1.25;;
39022;SDS011;25908;51.984;5.928;2023-04-03T00:30:24;3.92;;;1.20;;
39022;SDS011;25908;51.984;5.928;2023-04-03T00:32:51;7.75;;;2.05;;
39022;SDS011;25908;51.984;5.928;2023-04-03T00:35:18;5.63;;;1.45;;
39022;SDS011;25908;51.984;5.928;2023-04-03T00:37:45;4.18;;;1.38;;
39022;SDS011;25908;51.984;5.928;2023-04-03T00:40:11;3.13;;;1.20;;
39022;SDS011;25908;51.984;5.928;2023-04-03T00:42:39;4.03;;;1.63;;
39022;SDS011;25908;51.984;5.928;2023-04-03T00:47:38;5.82;;;1.50;;
39022;SDS011;25908;51.984;5.928;2023-04-03T00:50:05;3.90;;;1.20;;
39022;SDS011;25908;51.984;5.928;2023-04-03T00:52:32;4.38;;;1.50;;
39022;SDS011;25908;51.984;5.928;2023-04-03T00:54:59;3.95;;;1.20;;
39022;SDS011;25908;51.984;5.928;2023-04-03T00:57:29;4.20;;;1.70;;
39022;SDS011;25908;51.984;5.928;2023-04-03T00:59:57;4.38;;;1.33;;
39022;SDS011;25908;51.984;5.928;2023-04-03T01:02:27;3.45;;;1.50;;
39022;SDS011;25908;51.984;5.928;2023-04-03T01:04:53;7.45;;;1.45;;
39022;SDS011;25908;51.984;5.928;2023-04-03T01:07:22;4.22;;;1.40;;
39022;SDS011;25908;51.984;5.928;2023-04-03T01:09:53;4.78;;;1.30;;
39022;SDS011;25908;51.984;5.928;2023-04-03T01:12:23;5.18;;;1.45;;
39022;SDS011;25908;51.984;5.928;2023-04-03T01:14:50;7.30;;;1.45;;
39022;SDS011;25908;51.984;5.928;2023-04-03T01:20:43;3.67;;;1.35;;
39022;SDS011;25908;51.984;5.928;2023-04-03T01:22:45;6.22;;;1.73;;
39022;SDS011;25908;51.984;5.928;2023-04-03T01:25:32;4.30;;;1.33;;
39022;SDS011;25908;51.984;5.928;2023-04-03T01:27:59;5.72;;;1.35;;
39022;SDS011;25908;51.984;5.928;2023-04-03T01:30:28;5.47;;;1.85;;
39022;SDS011;25908;51.984;5.928;2023-04-03T01:32:58;4.07;;;1.30;;
39022;SDS011;25908;51.984;5.928;2023-04-03T01:35:23;2.67;;;1.27;;
39022;SDS011;25908;51.984;5.928;2023-04-03T01:37:49;4.97;;;1.77;;
39022;SDS011;25908;51.984;5.928;2023-04-03T01:40:14;6.20;;;1.67;;
39022;SDS011;25908;51.984;5.928;2023-04-03T01:42:40;3.15;;;1.20;;
39022;SDS011;25908;51.984;5.928;2023-04-03T01:45:06;4.93;;;1.13;;
39022;SDS011;25908;51.984;5.928;2023-04-03T01:47:32;3.40;;;1.35;;
39022;SDS011;25908;51.984;5.928;2023-04-03T01:49:57;4.82;;;1.50;;
39022;SDS011;25908;51.984;5.928;2023-04-03T01:52:23;3.45;;;1.35;;
39022;SDS011;25908;51.984;5.928;2023-04-03T01:54:49;3.90;;;1.40;;
39022;SDS011;25908;51.984;5.928;2023-04-03T01:57:15;2.55;;;1.17;;
39022;SDS011;25908;51.984;5.928;2023-04-03T01:59:41;4.03;;;1.38;;
39022;SDS011;25908;51.984;5.928;2023-04-03T02:02:07;3.63;;;1.20;;
39022;SDS011;25908;51.984;5.928;2023-04-03T02:04:32;5.43;;;1.58;;
39022;SDS011;25908;51.984;5.928;2023-04-03T02:06:58;7.32;;;1.75;;
39022;SDS011;25908;51.984;5.928;2023-04-03T02:09:24;3.30;;;1.10;;
39022;SDS011;25908;51.984;5.928;2023-04-03T02:11:49;4.30;;;1.50;;
39022;SDS011;25908;51.984;5.928;2023-04-03T02:14:15;5.00;;;1.63;;
39022;SDS011;25908;51.984;5.928;2023-04-03T02:16:40;3.15;;;1.50;;
39022;SDS011;25908;51.984;5.928;2023-04-03T02:19:06;5.75;;;1.50;;
39022;SDS011;25908;51.984;5.928;2023-04-03T02:21:32;4.25;;;1.40;;
39022;SDS011;25908;51.984;5.928;2023-04-03T02:23:57;3.17;;;1.02;;
39022;SDS011;25908;51.984;5.928;2023-04-03T02:26:23;7.45;;;1.70;;
39022;SDS011;25908;51.984;5.928;2023-04-03T02:28:49;3.35;;;1.35;;
39022;SDS011;25908;51.984;5.928;2023-04-03T02:31:15;5.57;;;1.40;;
39022;SDS011;25908;51.984;5.928;2023-04-03T02:33:40;3.55;;;1.42;;
39022;SDS011;25908;51.984;5.928;2023-04-03T02:36:06;3.40;;;1.27;;
39022;SDS011;25908;51.984;5.928;2023-04-03T02:38:32;5.53;;;1.50;;
39022;SDS011;25908;51.984;5.928;2023-04-03T02:41:06;4.25;;;1.50;;
39022;SDS011;25908;51.984;5.928;2023-04-03T02:43:34;5.85;;;1.50;;
39022;SDS011;25908;51.984;5.928;2023-04-03T02:45:59;3.90;;;1.42;;
39022;SDS011;25908;51.984;5.928;2023-04-03T02:48:25;4.97;;;1.50;;
39022;SDS011;25908;51.984;5.928;2023-04-03T02:50:51;4.88;;;1.10;;
39022;SDS011;25908;51.984;5.928;2023-04-03T02:53:17;7.18;;;1.58;;
39022;SDS011;25908;51.984;5.928;2023-04-03T02:55:43;5.72;;;1.70;;
39022;SDS011;25908;51.984;5.928;2023-04-03T02:58:09;7.28;;;1.75;;
39022;SDS011;25908;51.984;5.928;2023-04-03T03:00:35;4.57;;;1.63;;
39022;SDS011;25908;51.984;5.928;2023-04-03T03:03:00;4.13;;;1.40;;
39022;SDS011;25908;51.984;5.928;2023-04-03T03:05:26;4.90;;;1.30;;
39022;SDS011;25908;51.984;5.928;2023-04-03T03:07:53;2.38;;;1.20;;
39022;SDS011;25908;51.984;5.928;2023-04-03T03:10:19;3.60;;;1.60;;
39022;SDS011;25908;51.984;5.928;2023-04-03T03:12:45;3.85;;;1.50;;
39022;SDS011;25908;51.984;5.928;2023-04-03T03:15:10;5.40;;;1.30;;
39022;SDS011;25908;51.984;5.928;2023-04-03T03:17:36;5.47;;;1.70;;
39022;SDS011;25908;51.984;5.928;2023-04-03T03:20:02;2.72;;;1.10;;
39022;SDS011;25908;51.984;5.928;2023-04-03T03:22:28;5.07;;;1.42;;
39022;SDS011;25908;51.984;5.928;2023-04-03T03:24:54;4.95;;;1.58;;
39022;SDS011;25908;51.984;5.928;2023-04-03T03:27:20;5.75;;;1.60;;
39022;SDS011;25908;51.984;5.928;2023-04-03T03:29:45;5.15;;;1.60;;
39022;SDS011;25908;51.984;5.928;2023-04-03T03:32:11;3.63;;;1.27;;
39022;SDS011;25908;51.984;5.928;2023-04-03T03:34:37;4.68;;;1.30;;
39022;SDS011;25908;51.984;5.928;2023-04-03T03:37:02;6.57;;;2.15;;
39022;SDS011;25908;51.984;5.928;2023-04-03T03:39:28;6.43;;;1.75;;
39022;SDS011;25908;51.984;5.928;2023-04-03T03:41:54;4.90;;;1.60;;
39022;SDS011;25908;51.984;5.928;2023-04-03T03:44:20;4.43;;;1.42;;
39022;SDS011;25908;51.984;5.928;2023-04-03T03:46:45;6.10;;;1.60;;
39022;SDS011;25908;51.984;5.928;2023-04-03T03:49:11;4.88;;;1.40;;
39022;SDS011;25908;51.984;5.928;2023-04-03T03:51:37;5.10;;;1.70;;
39022;SDS011;25908;51.984;5.928;2023-04-03T03:54:03;6.10;;;1.80;;
39022;SDS011;25908;51.984;5.928;2023-04-03T03:56:29;6.32;;;1.50;;
39022;SDS011;25908;51.984;5.928;2023-04-03T03:58:55;4.57;;;1.52;;
39022;SDS011;25908;51.984;5.928;2023-04-03T04:01:21;5.18;;;2.83;;
39022;SDS011;25908;51.984;5.928;2023-04-03T04:03:48;4.55;;;1.50;;
39022;SDS011;25908;51.984;5.928;2023-04-03T04:06:14;4.53;;;1.90;;
39022;SDS011;25908;51.984;5.928;2023-04-03T04:08:39;4.15;;;1.58;;
39022;SDS011;25908;51.984;5.928;2023-04-03T04:11:05;6.03;;;1.15;;
39022;SDS011;25908;51.984;5.928;2023-04-03T04:13:32;6.35;;;1.83;;
39022;SDS011;25908;51.984;5.928;2023-04-03T04:15:57;5.35;;;1.67;;
39022;SDS011;25908;51.984;5.928;2023-04-03T04:18:23;5.32;;;1.80;;
39022;SDS011;25908;51.984;5.928;2023-04-03T04:20:49;4.78;;;1.52;;
39022;SDS011;25908;51.984;5.928;2023-04-03T04:23:15;6.25;;;1.67;;
39022;SDS011;25908;51.984;5.928;2023-04-03T04:25:41;4.50;;;1.48;;
39022;SDS011;25908;51.984;5.928;2023-04-03T04:28:10;6.03;;;1.67;;
39022;SDS011;25908;51.984;5.928;2023-04-03T04:30:36;7.35;;;1.90;;
39022;SDS011;25908;51.984;5.928;2023-04-03T04:33:02;4.78;;;2.05;;
39022;SDS011;25908;51.984;5.928;2023-04-03T04:35:27;5.55;;;1.75;;
39022;SDS011;25908;51.984;5.928;2023-04-03T04:37:53;4.25;;;1.33;;
39022;SDS011;25908;51.984;5.928;2023-04-03T04:40:19;7.55;;;1.52;;
39022;SDS011;25908;51.984;5.928;2023-04-03T04:42:45;6.28;;;1.95;;
39022;SDS011;25908;51.984;5.928;2023-04-03T04:45:10;5.60;;;1.90;;
39022;SDS011;25908;51.984;5.928;2023-04-03T04:47:36;6.90;;;1.90;;
39022;SDS011;25908;51.984;5.928;2023-04-03T04:50:01;7.20;;;1.63;;
39022;SDS011;25908;51.984;5.928;2023-04-03T04:52:28;5.18;;;1.45;;
39022;SDS011;25908;51.984;5.928;2023-04-03T04:54:53;6.20;;;1.65;;
39022;SDS011;25908;51.984;5.928;2023-04-03T04:57:19;8.02;;;2.30;;
39022;SDS011;25908;51.984;5.928;2023-04-03T04:59:45;5.22;;;2.10;;
39022;SDS011;25908;51.984;5.928;2023-04-03T05:02:10;5.22;;;2.00;;
39022;SDS011;25908;51.984;5.928;2023-04-03T05:04:36;5.38;;;1.83;;
39022;SDS011;25908;51.984;5.928;2023-04-03T05:07:01;6.13;;;2.08;;
39022;SDS011;25908;51.984;5.928;2023-04-03T05:09:27;4.10;;;1.55;;
39022;SDS011;25908;51.984;5.928;2023-04-03T05:11:52;8.00;;;1.85;;
39022;SDS011;25908;51.984;5.928;2023-04-03T05:14:18;5.40;;;1.70;;
39022;SDS011;25908;51.984;5.928;2023-04-03T05:16:44;8.30;;;1.80;;
39022;SDS011;25908;51.984;5.928;2023-04-03T05:19:09;5.45;;;2.10;;
39022;SDS011;25908;51.984;5.928;2023-04-03T05:21:35;4.97;;;1.50;;
39022;SDS011;25908;51.984;5.928;2023-04-03T05:24:01;7.25;;;1.85;;
39022;SDS011;25908;51.984;5.928;2023-04-03T05:26:28;8.23;;;2.33;;
39022;SDS011;25908;51.984;5.928;2023-04-03T05:28:57;4.68;;;1.88;;
39022;SDS011;25908;51.984;5.928;2023-04-03T05:31:23;5.35;;;1.58;;
39022;SDS011;25908;51.984;5.928;2023-04-03T05:33:48;5.07;;;1.90;;
39022;SDS011;25908;51.984;5.928;2023-04-03T05:36:14;3.70;;;1.50;;
39022;SDS011;25908;51.984;5.928;2023-04-03T05:38:40;7.90;;;1.90;;
39022;SDS011;25908;51.984;5.928;2023-04-03T05:41:06;9.27;;;2.72;;
39022;SDS011;25908;51.984;5.928;2023-04-03T05:43:31;4.28;;;1.52;;
39022;SDS011;25908;51.984;5.928;2023-04-03T05:45:58;6.90;;;1.98;;
39022;SDS011;25908;51.984;5.928;2023-04-03T05:48:24;6.63;;;1.75;;
39022;SDS011;25908;51.984;5.928;2023-04-03T05:50:50;8.68;;;2.10;;
39022;SDS011;25908;51.984;5.928;2023-04-03T05:53:18;4.65;;;1.30;;
39022;SDS011;25908;51.984;5.928;2023-04-03T05:55:47;7.53;;;1.65;;
39022;SDS011;25908;51.984;5.928;2023-04-03T05:58:13;6.90;;;1.60;;
39022;SDS011;25908;51.984;5.928;2023-04-03T06:00:38;5.80;;;1.40;;
39022;SDS011;25908;51.984;5.928;2023-04-03T06:03:05;6.40;;;2.05;;
39022;SDS011;25908;51.984;5.928;2023-04-03T06:05:31;4.82;;;1.67;;
39022;SDS011;25908;51.984;5.928;2023-04-03T06:07:57;5.85;;;2.22;;
39022;SDS011;25908;51.984;5.928;2023-04-03T06:10:23;5.05;;;2.00;;
39022;SDS011;25908;51.984;5.928;2023-04-03T06:12:48;5.25;;;1.92;;
39022;SDS011;25908;51.984;5.928;2023-04-03T06:15:15;5.47;;;1.70;;
39022;SDS011;25908;51.984;5.928;2023-04-03T06:17:41;10.18;;;2.50;;
39022;SDS011;25908;51.984;5.928;2023-04-03T06:20:07;5.95;;;1.50;;
39022;SDS011;25908;51.984;5.928;2023-04-03T06:22:34;6.05;;;1.80;;
39022;SDS011;25908;51.984;5.928;2023-04-03T06:25:00;7.78;;;2.20;;
39022;SDS011;25908;51.984;5.928;2023-04-03T06:27:26;6.63;;;2.05;;
39022;SDS011;25908;51.984;5.928;2023-04-03T06:29:52;5.28;;;1.67;;
39022;SDS011;25908;51.984;5.928;2023-04-03T06:32:18;7.35;;;2.30;;
39022;SDS011;25908;51.984;5.928;2023-04-03T06:34:43;8.15;;;1.67;;
39022;SDS011;25908;51.984;5.928;2023-04-03T06:37:14;7.72;;;1.70;;
39022;SDS011;25908;51.984;5.928;2023-04-03T06:39:46;7.35;;;1.50;;
39022;SDS011;25908;51.984;5.928;2023-04-03T06:42:12;6.13;;;2.05;;
39022;SDS011;25908;51.984;5.928;2023-04-03T06:44:38;5.47;;;1.63;;
39022;SDS011;25908;51.984;5.928;2023-04-03T06:47:04;7.47;;;1.90;;
39022;SDS011;25908;51.984;5.928;2023-04-03T06:49:30;9.32;;;1.70;;
39022;SDS011;25908;51.984;5.928;2023-04-03T06:51:57;6.60;;;2.05;;
39022;SDS011;25908;51.984;5.928;2023-04-03T06:54:23;6.75;;;1.88;;
39022;SDS011;25908;51.984;5.928;2023-04-03T06:56:48;5.05;;;1.67;;
39022;SDS011;25908;51.984;5.928;2023-04-03T06:59:14;5.97;;;1.73;;
39022;SDS011;25908;51.984;5.928;2023-04-03T07:01:40;4.78;;;1.85;;
39022;SDS011;25908;51.984;5.928;2023-04-03T07:04:06;4.60;;;1.48;;
39022;SDS011;25908;51.984;5.928;2023-04-03T07:06:32;5.97;;;1.80;;
39022;SDS011;25908;51.984;5.928;2023-04-03T07:08:59;11.77;;;2.40;;
39022;SDS011;25908;51.984;5.928;2023-04-03T07:11:25;5.00;;;1.85;;
39022;SDS011;25908;51.984;5.928;2023-04-03T07:13:52;4.78;;;1.30;;
39022;SDS011;25908;51.984;5.928;2023-04-03T07:16:18;5.60;;;1.80;;
39022;SDS011;25908;51.984;5.928;2023-04-03T07:18:44;5.90;;;1.55;;
39022;SDS011;25908;51.984;5.928;2023-04-03T07:21:10;3.05;;;1.30;;
39022;SDS011;25908;51.984;5.928;2023-04-03T07:23:36;9.85;;;2.80;;
39022;SDS011;25908;51.984;5.928;2023-04-03T07:26:02;5.70;;;1.90;;
39022;SDS011;25908;51.984;5.928;2023-04-03T07:28:28;4.35;;;1.48;;
39022;SDS011;25908;51.984;5.928;2023-04-03T07:30:59;7.00;;;2.38;;
39022;SDS011;25908;51.984;5.928;2023-04-03T07:33:27;3.97;;;1.45;;
39022;SDS011;25908;51.984;5.928;2023-04-03T07:35:52;4.57;;;1.50;;
39022;SDS011;25908;51.984;5.928;2023-04-03T07:38:18;4.85;;;1.50;;
39022;SDS011;25908;51.984;5.928;2023-04-03T07:40:47;4.55;;;1.30;;
39022;SDS011;25908;51.984;5.928;2023-04-03T07:43:15;6.45;;;1.58;;
39022;SDS011;25908;51.984;5.928;2023-04-03T07:45:42;6.32;;;1.52;;
39022;SDS011;25908;51.984;5.928;2023-04-03T07:48:08;5.25;;;1.38;;
39022;SDS011;25908;51.984;5.928;2023-04-03T07:50:39;7.05;;;1.85;;
39022;SDS011;25908;51.984;5.928;2023-04-03T07:53:05;2.42;;;1.00;;
39022;SDS011;25908;51.984;5.928;2023-04-03T07:55:32;5.38;;;1.50;;
39022;SDS011;25908;51.984;5.928;2023-04-03T07:57:58;5.50;;;1.42;;
39022;SDS011;25908;51.984;5.928;2023-04-03T08:00:23;5.30;;;1.38;;
39022;SDS011;25908;51.984;5.928;2023-04-03T08:02:49;4.07;;;1.20;;
39022;SDS011;25908;51.984;5.928;2023-04-03T08:05:19;4.55;;;1.17;;
39022;SDS011;25908;51.984;5.928;2023-04-03T08:07:46;3.92;;;1.50;;
39022;SDS011;25908;51.984;5.928;2023-04-03T08:10:12;4.10;;;1.30;;
39022;SDS011;25908;51.984;5.928;2023-04-03T08:12:39;3.15;;;1.08;;
39022;SDS011;25908;51.984;5.928;2023-04-03T08:15:05;4.93;;;1.30;;
39022;SDS011;25908;51.984;5.928;2023-04-03T08:17:33;4.07;;;1.10;;
39022;SDS011;25908;51.984;5.928;2023-04-03T08:19:58;3.15;;;1.00;;
39022;SDS011;25908;51.984;5.928;2023-04-03T08:22:24;4.47;;;1.33;;
39022;SDS011;25908;51.984;5.928;2023-04-03T08:24:50;3.25;;;0.90;;
39022;SDS011;25908;51.984;5.928;2023-04-03T08:27:15;4.05;;;0.98;;
39022;SDS011;25908;51.984;5.928;2023-04-03T08:29:41;3.50;;;1.15;;
39022;SDS011;25908;51.984;5.928;2023-04-03T08:32:06;2.88;;;1.00;;
39022;SDS011;25908;51.984;5.928;2023-04-03T08:34:32;5.20;;;1.63;;
39022;SDS011;25908;51.984;5.928;2023-04-03T08:37:01;2.63;;;0.88;;
39022;SDS011;25908;51.984;5.928;2023-04-03T08:39:27;3.03;;;0.95;;
39022;SDS011;25908;51.984;5.928;2023-04-03T08:41:54;3.30;;;0.88;;
39022;SDS011;25908;51.984;5.928;2023-04-03T08:47:28;2.03;;;0.70;;
39022;SDS011;25908;51.984;5.928;2023-04-03T08:50:05;2.28;;;0.85;;
39022;SDS011;25908;51.984;5.928;2023-04-03T08:52:39;3.10;;;0.80;;
39022;SDS011;25908;51.984;5.928;2023-04-03T08:57:44;2.13;;;0.90;;
39022;SDS011;25908;51.984;5.928;2023-04-03T09:00:18;3.25;;;1.00;;
39022;SDS011;25908;51.984;5.928;2023-04-03T09:02:50;2.08;;;0.70;;
39022;SDS011;25908;51.984;5.928;2023-04-03T09:05:18;2.60;;;0.70;;
39022;SDS011;25908;51.984;5.928;2023-04-03T09:10:43;2.03;;;0.70;;
39022;SDS011;25908;51.984;5.928;2023-04-03T09:13:12;3.05;;;0.65;;
39022;SDS011;25908;51.984;5.928;2023-04-03T09:15:49;4.15;;;0.70;;
39022;SDS011;25908;51.984;5.928;2023-04-03T09:23:31;1.52;;;0.40;;
39022;SDS011;25908;51.984;5.928;2023-04-03T09:26:11;1.08;;;0.30;;
39022;SDS011;25908;51.984;5.928;2023-04-03T09:28:44;0.73;;;0.40;;
39022;SDS011;25908;51.984;5.928;2023-04-03T09:31:35;2.10;;;0.50;;
39022;SDS011;25908;51.984;5.928;2023-04-03T09:34:02;1.77;;;0.68;;
39022;SDS011;25908;51.984;5.928;2023-04-03T09:36:39;1.73;;;0.77;;
39022;SDS011;25908;51.984;5.928;2023-04-03T09:39:11;1.13;;;0.38;;
39022;SDS011;25908;51.984;5.928;2023-04-03T09:41:42;1.40;;;0.50;;
39022;SDS011;25908;51.984;5.928;2023-04-03T09:44:22;2.20;;;0.95;;
39022;SDS011;25908;51.984;5.928;2023-04-03T09:46:51;1.65;;;0.40;;
39022;SDS011;25908;51.984;5.928;2023-04-03T09:49:17;0.88;;;0.47;;
39022;SDS011;25908;51.984;5.928;2023-04-03T09:51:43;1.08;;;0.50;;
39022;SDS011;25908;51.984;5.928;2023-04-03T09:57:23;3.97;;;1.23;;
39022;SDS011;25908;51.984;5.928;2023-04-03T09:59:58;1.73;;;0.77;;
39022;SDS011;25908;51.984;5.928;2023-04-03T10:02:38;1.75;;;0.50;;
39022;SDS011;25908;51.984;5.928;2023-04-03T10:05:24;2.65;;;1.10;;
39022;SDS011;25908;51.984;5.928;2023-04-03T10:08:06;2.55;;;0.73;;
39022;SDS011;25908;51.984;5.928;2023-04-03T10:10:32;2.10;;;0.70;;
39022;SDS011;25908;51.984;5.928;2023-04-03T10:13:05;1.73;;;0.80;;
39022;SDS011;25908;51.984;5.928;2023-04-03T10:15:36;4.10;;;1.15;;
39022;SDS011;25908;51.984;5.928;2023-04-03T10:18:29;3.30;;;1.00;;
39022;SDS011;25908;51.984;5.928;2023-04-03T10:20:57;2.40;;;0.60;;
39022;SDS011;25908;51.984;5.928;2023-04-03T10:26:44;3.75;;;1.05;;
39022;SDS011;25908;51.984;5.928;2023-04-03T10:35:08;2.70;;;1.00;;
39022;SDS011;25908;51.984;5.928;2023-04-03T10:40:34;4.72;;;1.00;;
39022;SDS011;25908;51.984;5.928;2023-04-03T10:51:38;1.75;;;0.90;;
39022;SDS011;25908;51.984;5.928;2023-04-03T10:54:16;4.10;;;1.38;;
39022;SDS011;25908;51.984;5.928;2023-04-03T10:56:55;2.92;;;0.73;;
39022;SDS011;25908;51.984;5.928;2023-04-03T11:02:14;2.95;;;0.80;;
39022;SDS011;25908;51.984;5.928;2023-04-03T11:05:01;1.35;;;0.55;;
39022;SDS011;25908;51.984;5.928;2023-04-03T11:07:47;1.92;;;0.80;;
39022;SDS011;25908;51.984;5.928;2023-04-03T11:10:21;2.25;;;0.93;;
39022;SDS011;25908;51.984;5.928;2023-04-03T11:15:58;2.88;;;1.00;;
39022;SDS011;25908;51.984;5.928;2023-04-03T11:18:26;3.58;;;0.90;;
39022;SDS011;25908;51.984;5.928;2023-04-03T11:21:01;3.67;;;0.98;;
39022;SDS011;25908;51.984;5.928;2023-04-03T11:23:36;3.53;;;1.00;;
39022;SDS011;25908;51.984;5.928;2023-04-03T11:26:11;1.60;;;0.77;;
39022;SDS011;25908;51.984;5.928;2023-04-03T11:28:41;2.63;;;0.80;;
39022;SDS011;25908;51.984;5.928;2023-04-03T11:36:28;2.22;;;0.93;;
39022;SDS011;25908;51.984;5.928;2023-04-03T11:38:58;2.67;;;0.80;;
39022;SDS011;25908;51.984;5.928;2023-04-03T11:41:32;1.25;;;0.70;;
39022;SDS011;25908;51.984;5.928;2023-04-03T11:46:48;2.67;;;0.77;;
39022;SDS011;25908;51.984;5.928;2023-04-03T12:08:25;2.80;;;0.60;;
39022;SDS011;25908;51.984;5.928;2023-04-03T12:19:04;2.70;;;1.10;;
39022;SDS011;25908;51.984;5.928;2023-04-03T12:26:44;4.32;;;1.20;;
39022;SDS011;25908;51.984;5.928;2023-04-03T12:40:05;4.45;;;1.00;;
39022;SDS011;25908;51.984;5.928;2023-04-03T12:48:54;3.17;;;0.83;;
39022;SDS011;25908;51.984;5.928;2023-04-03T12:51:39;4.07;;;1.00;;
39022;SDS011;25908;51.984;5.928;2023-04-03T12:54:13;2.08;;;0.73;;
39022;SDS011;25908;51.984;5.928;2023-04-03T12:56:43;3.47;;;0.85;;
39022;SDS011;25908;51.984;5.928;2023-04-03T12:59:13;2.63;;;0.75;;
39022;SDS011;25908;51.984;5.928;2023-04-03T13:01:41;2.00;;;0.75;;
39022;SDS011;25908;51.984;5.928;2023-04-03T13:04:07;3.25;;;0.98;;
39022;SDS011;25908;51.984;5.928;2023-04-03T13:06:41;1.80;;;0.70;;
39022;SDS011;25908;51.984;5.928;2023-04-03T13:09:22;3.40;;;1.02;;
39022;SDS011;25908;51.984;5.928;2023-04-03T13:11:56;3.40;;;0.90;;
39022;SDS011;25908;51.984;5.928;2023-04-03T13:14:26;4.57;;;0.93;;
39022;SDS011;25908;51.984;5.928;2023-04-03T13:19:27;1.77;;;0.80;;
39022;SDS011;25908;51.984;5.928;2023-04-03T13:21:57;4.07;;;1.40;;
39022;SDS011;25908;51.984;5.928;2023-04-03T13:24:25;2.70;;;0.85;;
39022;SDS011;25908;51.984;5.928;2023-04-03T13:26:52;2.83;;;1.02;;
39022;SDS011;25908;51.984;5.928;2023-04-03T13:29:22;3.33;;;1.27;;
39022;SDS011;25908;51.984;5.928;2023-04-03T13:31:54;4.97;;;1.02;;
39022;SDS011;25908;51.984;5.928;2023-04-03T13:34:21;4.05;;;1.25;;
39022;SDS011;25908;51.984;5.928;2023-04-03T13:41:44;5.47;;;1.50;;
39022;SDS011;25908;51.984;5.928;2023-04-03T13:46:50;4.90;;;1.23;;
39022;SDS011;25908;51.984;5.928;2023-04-03T13:51:58;2.08;;;1.00;;
39022;SDS011;25908;51.984;5.928;2023-04-03T13:57:02;4.05;;;0.80;;
39022;SDS011;25908;51.984;5.928;2023-04-03T13:59:33;4.25;;;1.02;;
39022;SDS011;25908;51.984;5.928;2023-04-03T14:04:33;3.70;;;1.30;;
39022;SDS011;25908;51.984;5.928;2023-04-03T14:07:09;5.30;;;1.27;;
39022;SDS011;25908;51.984;5.928;2023-04-03T14:09:39;1.98;;;1.00;;
39022;SDS011;25908;51.984;5.928;2023-04-03T14:12:06;3.00;;;1.20;;
39022;SDS011;25908;51.984;5.928;2023-04-03T14:14:51;2.13;;;0.77;;
39022;SDS011;25908;51.984;5.928;2023-04-03T14:17:18;3.83;;;1.20;;
39022;SDS011;25908;51.984;5.928;2023-04-03T14:19:47;3.88;;;1.00;;
39022;SDS011;25908;51.984;5.928;2023-04-03T14:22:16;4.43;;;1.40;;
39022;SDS011;25908;51.984;5.928;2023-04-03T14:24:47;3.22;;;0.95;;
39022;SDS011;25908;51.984;5.928;2023-04-03T14:30:14;2.97;;;1.48;;
39022;SDS011;25908;51.984;5.928;2023-04-03T14:32:48;2.88;;;1.23;;
39022;SDS011;25908;51.984;5.928;2023-04-03T14:35:14;3.08;;;1.05;;
39022;SDS011;25908;51.984;5.928;2023-04-03T14:37:42;2.92;;;0.90;;
39022;SDS011;25908;51.984;5.928;2023-04-03T14:40:11;4.20;;;1.20;;
39022;SDS011;25908;51.984;5.928;2023-04-03T14:42:42;1.98;;;0.80;;
39022;SDS011;25908;51.984;5.928;2023-04-03T14:45:08;3.28;;;1.10;;
39022;SDS011;25908;51.984;5.928;2023-04-03T14:47:41;4.35;;;0.93;;
39022;SDS011;25908;51.984;5.928;2023-04-03T14:50:17;3.72;;;1.13;;
39022;SDS011;25908;51.984;5.928;2023-04-03T14:52:46;3.03;;;1.05;;
39022;SDS011;25908;51.984;5.928;2023-04-03T14:55:17;3.67;;;1.60;;
39022;SDS011;25908;51.984;5.928;2023-04-03T14:57:44;4.82;;;1.27;;
39022;SDS011;25908;51.984;5.928;2023-04-03T15:00:14;3.88;;;1.40;;
39022;SDS011;25908;51.984;5.928;2023-04-03T15:02:42;6.15;;;1.40;;
39022;SDS011;25908;51.984;5.928;2023-04-03T15:05:09;6.20;;;1.38;;
39022;SDS011;25908;51.984;5.928;2023-04-03T15:07:36;2.60;;;1.20;;
39022;SDS011;25908;51.984;5.928;2023-04-03T15:10:15;4.38;;;1.27;;
39022;SDS011;25908;51.984;5.928;2023-04-03T15:12:59;4.20;;;1.30;;
39022;SDS011;25908;51.984;5.928;2023-04-03T15:15:27;3.05;;;1.02;;
39022;SDS011;25908;51.984;5.928;2023-04-03T15:17:55;4.47;;;1.23;;
39022;SDS011;25908;51.984;5.928;2023-04-03T15:20:23;3.95;;;1.30;;
39022;SDS011;25908;51.984;5.928;2023-04-03T15:22:51;3.05;;;1.10;;
39022;SDS011;25908;51.984;5.928;2023-04-03T15:25:16;3.25;;;1.33;;
39022;SDS011;25908;51.984;5.928;2023-04-03T15:27:43;3.75;;;1.20;;
39022;SDS011;25908;51.984;5.928;2023-04-03T15:30:18;6.57;;;1.88;;
39022;SDS011;25908;51.984;5.928;2023-04-03T15:32:44;2.30;;;0.82;;
39022;SDS011;25908;51.984;5.928;2023-04-03T15:35:10;3.10;;;1.08;;
39022;SDS011;25908;51.984;5.928;2023-04-03T15:37:35;3.72;;;1.17;;
39022;SDS011;25908;51.984;5.928;2023-04-03T15:40:02;3.03;;;1.17;;
39022;SDS011;25908;51.984;5.928;2023-04-03T15:42:29;3.72;;;1.05;;
39022;SDS011;25908;51.984;5.928;2023-04-03T15:44:55;6.00;;;1.35;;
39022;SDS011;25908;51.984;5.928;2023-04-03T15:47:20;4.80;;;1.40;;
39022;SDS011;25908;51.984;5.928;2023-04-03T15:49:46;4.28;;;1.30;;
39022;SDS011;25908;51.984;5.928;2023-04-03T15:52:11;3.10;;;1.00;;
39022;SDS011;25908;51.984;5.928;2023-04-03T15:54:37;4.68;;;1.02;;
39022;SDS011;25908;51.984;5.928;2023-04-03T15:57:02;4.18;;;1.30;;
39022;SDS011;25908;51.984;5.928;2023-04-03T15:59:28;3.80;;;1.10;;
39022;SDS011;25908;51.984;5.928;2023-04-03T16:01:55;3.72;;;1.05;;
39022;SDS011;25908;51.984;5.928;2023-04-03T16:04:22;4.50;;;1.05;;
39022;SDS011;25908;51.984;5.928;2023-04-03T16:06:47;3.50;;;1.30;;
39022;SDS011;25908;51.984;5.928;2023-04-03T16:09:14;5.85;;;1.65;;
39022;SDS011;25908;51.984;5.928;2023-04-03T16:11:39;6.53;;;1.88;;
39022;SDS011;25908;51.984;5.928;2023-04-03T16:14:06;5.85;;;0.88;;
39022;SDS011;25908;51.984;5.928;2023-04-03T16:16:32;4.68;;;1.00;;
39022;SDS011;25908;51.984;5.928;2023-04-03T16:18:58;5.70;;;1.67;;
39022;SDS011;25908;51.984;5.928;2023-04-03T16:21:24;3.70;;;1.40;;
39022;SDS011;25908;51.984;5.928;2023-04-03T16:23:50;4.25;;;1.13;;
39022;SDS011;25908;51.984;5.928;2023-04-03T16:26:15;3.83;;;1.00;;
39022;SDS011;25908;51.984;5.928;2023-04-03T16:28:42;3.95;;;1.30;;
39022;SDS011;25908;51.984;5.928;2023-04-03T16:31:08;6.95;;;1.73;;
39022;SDS011;25908;51.984;5.928;2023-04-03T16:33:34;3.50;;;1.35;;
39022;SDS011;25908;51.984;5.928;2023-04-03T16:36:00;5.03;;;1.98;;
39022;SDS011;25908;51.984;5.928;2023-04-03T16:38:26;2.88;;;1.10;;
39022;SDS011;25908;51.984;5.928;2023-04-03T16:40:52;3.78;;;1.30;;
39022;SDS011;25908;51.984;5.928;2023-04-03T16:43:21;3.15;;;1.15;;
39022;SDS011;25908;51.984;5.928;2023-04-03T16:45:47;3.88;;;1.00;;
39022;SDS011;25908;51.984;5.928;2023-04-03T16:48:12;2.90;;;1.35;;
39022;SDS011;25908;51.984;5.928;2023-04-03T16:50:38;4.50;;;1.30;;
39022;SDS011;25908;51.984;5.928;2023-04-03T16:53:04;4.60;;;1.30;;
39022;SDS011;25908;51.984;5.928;2023-04-03T16:55:33;3.83;;;1.10;;
39022;SDS011;25908;51.984;5.928;2023-04-03T16:57:58;3.72;;;1.15;;
39022;SDS011;25908;51.984;5.928;2023-04-03T17:00:24;3.80;;;1.30;;